createdAt,value
2023-05-05T00:00:48.941Z,15.6
2023-05-05T00:20:46.521Z,15.5
2023-05-05T00:40:47.446Z,15.3
2023-05-05T01:00:46.465Z,15.3
2023-05-05T01:20:52.943Z,15.3
2023-05-05T01:40:46.560Z,15.2
2023-05-05T02:00:47.064Z,15.1
2023-05-05T02:20:45.780Z,15.1
2023-05-05T02:40:48.969Z,15
2023-05-05T03:00:47.729Z,14.9
2023-05-05T03:20:47.066Z,14.8
2023-05-05T03:41:03.467Z,14.6
2023-05-05T04:00:48.287Z,14.4
2023-05-05T04:21:15.120Z,14.3
2023-05-05T04:41:16.226Z,14.2
2023-05-05T05:01:09.249Z,14.3
2023-05-05T05:21:08.480Z,14.3
2023-05-05T05:41:10.738Z,14.6
2023-05-05T06:01:15.352Z,14.9
2023-05-05T06:21:13.005Z,15.3
2023-05-05T06:41:14.441Z,15.6
2023-05-05T07:01:07.796Z,15.6
2023-05-05T07:21:13.932Z,16.4
2023-05-05T07:41:08.679Z,16.3
2023-05-05T08:01:16.128Z,17.2
2023-05-05T08:21:15.746Z,17.6
2023-05-05T08:41:09.001Z,17.5
2023-05-05T09:01:08.363Z,18.1
2023-05-05T09:21:10.728Z,18.6
2023-05-05T09:41:07.169Z,18.6
2023-05-05T10:01:20.789Z,19.3
2023-05-05T10:21:13.891Z,19.6
2023-05-05T10:41:07.240Z,19.6
2023-05-05T11:01:13.277Z,20.3
2023-05-05T11:21:10.047Z,20.6
2023-05-05T11:41:07.455Z,20.7
2023-05-05T12:01:07.732Z,21
2023-05-05T12:21:07.614Z,21.4
2023-05-05T12:41:08.380Z,21.8
2023-05-05T13:01:12.036Z,22.1
2023-05-05T13:21:09.928Z,22.7
2023-05-05T13:41:18.910Z,22.4
2023-05-05T14:01:14.636Z,21.8
2023-05-05T14:21:06.460Z,21.8
2023-05-05T14:41:06.593Z,21.9
2023-05-05T15:01:07.248Z,21.2
2023-05-05T15:21:15.815Z,22.8
2023-05-05T15:41:13.100Z,22.2
2023-05-05T16:01:08.114Z,22.2
2023-05-05T16:21:14.010Z,22.8
2023-05-05T16:41:09.312Z,22.8
2023-05-05T17:01:08.479Z,22.3
2023-05-05T17:21:08.805Z,21.1
2023-05-05T17:41:09.450Z,20.7
2023-05-05T18:01:11.268Z,20.3
2023-05-05T18:21:11.525Z,20.3
2023-05-05T18:41:09.853Z,19.7
2023-05-05T19:00:48.385Z,19.4
2023-05-05T19:20:47.071Z,19
2023-05-05T19:40:47.374Z,18.7
2023-05-05T20:00:46.368Z,18.4
2023-05-05T20:20:48.324Z,18.1
2023-05-05T20:40:47.244Z,17.9
2023-05-05T21:00:46.763Z,17.7
2023-05-05T21:20:47.518Z,17.6
2023-05-05T21:40:47.395Z,17.4
2023-05-05T22:01:14.632Z,17.1
2023-05-05T22:20:54.142Z,16.9
2023-05-05T22:40:49.645Z,16.8
2023-05-05T23:00:51.924Z,16.2
2023-05-05T23:20:48.513Z,16.2
2023-05-05T23:40:48.609Z,16.1
